sensor_id;sensor_type;location;lat;lon;timestamp;temperature;humidity
13744;DHT22;6943;52.368;9.966;2022-09-01T00:01:52;13.80;1.00
13744;DHT22;6943;52.368;9.966;2022-09-01T00:04:21;13.80;1.00
13744;DHT22;6943;52.368;9.966;2022-09-01T00:06:47;13.70;1.00
13744;DHT22;6943;52.368;9.966;2022-09-01T00:09:15;13.80;1.00
13744;DHT22;6943;52.368;9.966;2022-09-01T00:11:44;13.70;1.00
13744;DHT22;6943;52.368;9.966;2022-09-01T00:14:12;13.60;1.00
13744;DHT22;6943;52.368;9.966;2022-09-01T00:16:37;13.60;1.00
13744;DHT22;6943;52.368;9.966;2022-09-01T00:19:03;13.60;1.00
13744;DHT22;6943;52.368;9.966;2022-09-01T00:21:39;13.50;1.00
13744;DHT22;6943;52.368;9.966;2022-09-01T00:24:06;13.50;1.00
13744;DHT22;6943;52.368;9.966;2022-09-01T00:26:32;13.50;1.00
13744;DHT22;6943;52.368;9.966;2022-09-01T00:28:57;13.50;1.00
13744;DHT22;6943;52.368;9.966;2022-09-01T00:31:24;13.40;1.00
13744;DHT22;6943;52.368;9.966;2022-09-01T00:33:50;13.40;1.00
13744;DHT22;6943;52.368;9.966;2022-09-01T00:36:17;13.30;1.00
13744;DHT22;6943;52.368;9.966;2022-09-01T00:38:43;13.40;1.00
13744;DHT22;6943;52.368;9.966;2022-09-01T00:41:09;13.30;1.00
13744;DHT22;6943;52.368;9.966;2022-09-01T00:46:11;13.30;1.00
13744;DHT22;6943;52.368;9.966;2022-09-01T00:48:38;13.30;1.00
13744;DHT22;6943;52.368;9.966;2022-09-01T00:51:04;13.20;1.00
13744;DHT22;6943;52.368;9.966;2022-09-01T00:53:31;13.20;1.00
13744;DHT22;6943;52.368;9.966;2022-09-01T00:55:57;13.30;1.00
13744;DHT22;6943;52.368;9.966;2022-09-01T00:58:23;13.20;1.00
13744;DHT22;6943;52.368;9.966;2022-09-01T01:00:50;13.20;1.00
13744;DHT22;6943;52.368;9.966;2022-09-01T01:03:16;13.20;1.00
13744;DHT22;6943;52.368;9.966;2022-09-01T01:05:46;13.30;1.00
13744;DHT22;6943;52.368;9.966;2022-09-01T01:08:16;13.20;1.00
13744;DHT22;6943;52.368;9.966;2022-09-01T01:10:45;13.10;1.00
13744;DHT22;6943;52.368;9.966;2022-09-01T01:13:14;13.10;1.00
13744;DHT22;6943;52.368;9.966;2022-09-01T01:15:40;13.10;1.00
13744;DHT22;6943;52.368;9.966;2022-09-01T01:18:13;13.10;19.60
13744;DHT22;6943;52.368;9.966;2022-09-01T01:20:39;13.00;34.40
13744;DHT22;6943;52.368;9.966;2022-09-01T01:23:33;13.00;50.30
13744;DHT22;6943;52.368;9.966;2022-09-01T01:26:03;13.00;83.40
13744;DHT22;6943;52.368;9.966;2022-09-01T01:28:32;12.90;95.60
13744;DHT22;6943;52.368;9.966;2022-09-01T01:31:03;12.90;92.40
13744;DHT22;6943;52.368;9.966;2022-09-01T01:33:35;12.90;92.80
13744;DHT22;6943;52.368;9.966;2022-09-01T01:36:05;12.80;99.90
13744;DHT22;6943;52.368;9.966;2022-09-01T01:38:32;12.90;99.90
13744;DHT22;6943;52.368;9.966;2022-09-01T01:40:59;12.80;99.90
13744;DHT22;6943;52.368;9.966;2022-09-01T01:43:25;12.80;99.90
13744;DHT22;6943;52.368;9.966;2022-09-01T01:45:54;12.80;99.90
13744;DHT22;6943;52.368;9.966;2022-09-01T01:48:23;12.70;99.90
13744;DHT22;6943;52.368;9.966;2022-09-01T01:50:51;12.80;99.90
13744;DHT22;6943;52.368;9.966;2022-09-01T01:53:17;12.70;99.90
13744;DHT22;6943;52.368;9.966;2022-09-01T01:55:44;12.70;99.90
13744;DHT22;6943;52.368;9.966;2022-09-01T01:58:10;12.60;99.90
13744;DHT22;6943;52.368;9.966;2022-09-01T02:00:37;12.60;99.90
13744;DHT22;6943;52.368;9.966;2022-09-01T02:03:03;12.60;99.90
13744;DHT22;6943;52.368;9.966;2022-09-01T02:05:32;12.50;99.90
13744;DHT22;6943;52.368;9.966;2022-09-01T02:08:07;12.50;99.90
13744;DHT22;6943;52.368;9.966;2022-09-01T02:10:37;12.50;99.90
13744;DHT22;6943;52.368;9.966;2022-09-01T02:13:05;12.40;99.90
13744;DHT22;6943;52.368;9.966;2022-09-01T02:15:37;12.40;99.90
13744;DHT22;6943;52.368;9.966;2022-09-01T02:18:09;12.40;99.90
13744;DHT22;6943;52.368;9.966;2022-09-01T02:20:35;12.40;99.90
13744;DHT22;6943;52.368;9.966;2022-09-01T02:23:01;12.30;99.90
13744;DHT22;6943;52.368;9.966;2022-09-01T02:25:34;12.30;99.90
13744;DHT22;6943;52.368;9.966;2022-09-01T02:28:00;12.30;99.90
13744;DHT22;6943;52.368;9.966;2022-09-01T02:30:27;12.30;99.90
13744;DHT22;6943;52.368;9.966;2022-09-01T02:32:53;12.30;99.90
13744;DHT22;6943;52.368;9.966;2022-09-01T02:35:18;12.30;99.90
13744;DHT22;6943;52.368;9.966;2022-09-01T02:37:44;12.30;99.90
13744;DHT22;6943;52.368;9.966;2022-09-01T02:40:13;12.30;99.90
13744;DHT22;6943;52.368;9.966;2022-09-01T02:42:40;12.20;99.90
13744;DHT22;6943;52.368;9.966;2022-09-01T02:45:08;12.20;99.90
13744;DHT22;6943;52.368;9.966;2022-09-01T02:47:36;12.20;99.90
13744;DHT22;6943;52.368;9.966;2022-09-01T02:50:05;12.20;99.90
13744;DHT22;6943;52.368;9.966;2022-09-01T02:52:31;12.20;99.90
13744;DHT22;6943;52.368;9.966;2022-09-01T02:55:01;12.10;99.90
13744;DHT22;6943;52.368;9.966;2022-09-01T02:57:27;12.10;99.90
13744;DHT22;6943;52.368;9.966;2022-09-01T02:59:53;12.10;99.90
13744;DHT22;6943;52.368;9.966;2022-09-01T03:02:23;12.00;99.90
13744;DHT22;6943;52.368;9.966;2022-09-01T03:04:54;12.00;99.90
13744;DHT22;6943;52.368;9.966;2022-09-01T03:07:20;12.00;99.90
13744;DHT22;6943;52.368;9.966;2022-09-01T03:09:48;11.90;99.90
13744;DHT22;6943;52.368;9.966;2022-09-01T03:12:14;12.00;99.90
13744;DHT22;6943;52.368;9.966;2022-09-01T03:14:39;12.00;99.90
13744;DHT22;6943;52.368;9.966;2022-09-01T03:17:05;11.90;99.90
13744;DHT22;6943;52.368;9.966;2022-09-01T03:19:30;11.90;99.90
13744;DHT22;6943;52.368;9.966;2022-09-01T03:22:04;11.80;99.90
13744;DHT22;6943;52.368;9.966;2022-09-01T03:24:30;11.80;99.90
13744;DHT22;6943;52.368;9.966;2022-09-01T03:26:56;11.80;99.90
13744;DHT22;6943;52.368;9.966;2022-09-01T03:29:22;11.80;99.90
13744;DHT22;6943;52.368;9.966;2022-09-01T03:31:48;11.80;99.90
13744;DHT22;6943;52.368;9.966;2022-09-01T03:34:14;11.80;99.90
13744;DHT22;6943;52.368;9.966;2022-09-01T03:36:42;11.80;99.90
13744;DHT22;6943;52.368;9.966;2022-09-01T03:39:15;11.80;99.90
13744;DHT22;6943;52.368;9.966;2022-09-01T03:41:41;11.80;99.90
13744;DHT22;6943;52.368;9.966;2022-09-01T03:44:07;11.80;99.90
13744;DHT22;6943;52.368;9.966;2022-09-01T03:46:38;11.80;99.90
13744;DHT22;6943;52.368;9.966;2022-09-01T03:49:04;11.70;99.90
13744;DHT22;6943;52.368;9.966;2022-09-01T03:51:32;11.70;99.90
13744;DHT22;6943;52.368;9.966;2022-09-01T03:53:59;11.70;99.90
13744;DHT22;6943;52.368;9.966;2022-09-01T03:56:27;11.70;99.90
13744;DHT22;6943;52.368;9.966;2022-09-01T03:58:57;11.00;99.90
13744;DHT22;6943;52.368;9.966;2022-09-01T04:01:28;11.70;99.90
13744;DHT22;6943;52.368;9.966;2022-09-01T04:03:56;11.60;99.90
13744;DHT22;6943;52.368;9.966;2022-09-01T04:06:22;11.60;99.90
13744;DHT22;6943;52.368;9.966;2022-09-01T04:08:48;11.50;99.90
13744;DHT22;6943;52.368;9.966;2022-09-01T04:11:17;11.50;99.90
13744;DHT22;6943;52.368;9.966;2022-09-01T04:13:43;11.50;99.90
13744;DHT22;6943;52.368;9.966;2022-09-01T04:16:24;11.40;99.90
13744;DHT22;6943;52.368;9.966;2022-09-01T04:19:09;11.40;99.90
13744;DHT22;6943;52.368;9.966;2022-09-01T04:21:45;11.40;99.90
13744;DHT22;6943;52.368;9.966;2022-09-01T04:24:11;11.50;99.90
13744;DHT22;6943;52.368;9.966;2022-09-01T04:26:39;11.50;99.90
13744;DHT22;6943;52.368;9.966;2022-09-01T04:29:05;13.60;99.90
13744;DHT22;6943;52.368;9.966;2022-09-01T04:31:35;10.70;99.90
13744;DHT22;6943;52.368;9.966;2022-09-01T04:34:03;11.40;99.90
13744;DHT22;6943;52.368;9.966;2022-09-01T04:36:35;11.50;99.90
13744;DHT22;6943;52.368;9.966;2022-09-01T04:39:03;11.50;99.90
13744;DHT22;6943;52.368;9.966;2022-09-01T04:41:34;11.40;99.90
13744;DHT22;6943;52.368;9.966;2022-09-01T04:44:00;11.50;99.90
13744;DHT22;6943;52.368;9.966;2022-09-01T04:46:31;11.50;99.90
13744;DHT22;6943;52.368;9.966;2022-09-01T04:48:59;11.90;99.90
13744;DHT22;6943;52.368;9.966;2022-09-01T04:51:27;11.60;99.90
13744;DHT22;6943;52.368;9.966;2022-09-01T04:53:54;11.70;99.90
13744;DHT22;6943;52.368;9.966;2022-09-01T04:56:20;11.70;99.90
13744;DHT22;6943;52.368;9.966;2022-09-01T04:58:47;11.90;99.90
13744;DHT22;6943;52.368;9.966;2022-09-01T05:01:19;12.10;99.90
13744;DHT22;6943;52.368;9.966;2022-09-01T05:03:45;12.20;99.90
13744;DHT22;6943;52.368;9.966;2022-09-01T05:06:17;12.30;99.90
13744;DHT22;6943;52.368;9.966;2022-09-01T05:08:44;12.50;99.90
13744;DHT22;6943;52.368;9.966;2022-09-01T05:11:11;14.00;99.90
13744;DHT22;6943;52.368;9.966;2022-09-01T05:13:38;15.60;1.00
13744;DHT22;6943;52.368;9.966;2022-09-01T05:16:07;16.50;1.00
13744;DHT22;6943;52.368;9.966;2022-09-01T05:18:38;17.20;1.00
13744;DHT22;6943;52.368;9.966;2022-09-01T05:21:07;17.80;99.90
13744;DHT22;6943;52.368;9.966;2022-09-01T05:23:36;18.60;99.90
13744;DHT22;6943;52.368;9.966;2022-09-01T05:26:11;20.00;1.00
13744;DHT22;6943;52.368;9.966;2022-09-01T05:28:41;20.40;1.00
13744;DHT22;6943;52.368;9.966;2022-09-01T05:31:07;21.20;1.00
13744;DHT22;6943;52.368;9.966;2022-09-01T05:33:34;20.30;1.00
13744;DHT22;6943;52.368;9.966;2022-09-01T05:36:02;20.60;1.00
13744;DHT22;6943;52.368;9.966;2022-09-01T05:38:32;21.90;1.00
13744;DHT22;6943;52.368;9.966;2022-09-01T05:41:01;22.60;1.00
13744;DHT22;6943;52.368;9.966;2022-09-01T05:43:29;23.40;99.90
13744;DHT22;6943;52.368;9.966;2022-09-01T05:45:59;23.20;99.90
13744;DHT22;6943;52.368;9.966;2022-09-01T05:48:29;22.10;99.90
13744;DHT22;6943;52.368;9.966;2022-09-01T05:50:56;20.90;1.00
13744;DHT22;6943;52.368;9.966;2022-09-01T05:53:27;20.70;1.00
13744;DHT22;6943;52.368;9.966;2022-09-01T05:55:53;22.20;1.00
13744;DHT22;6943;52.368;9.966;2022-09-01T05:58:22;21.00;1.00
13744;DHT22;6943;52.368;9.966;2022-09-01T06:00:49;21.50;1.00
13744;DHT22;6943;52.368;9.966;2022-09-01T06:03:16;22.40;1.00
13744;DHT22;6943;52.368;9.966;2022-09-01T06:05:42;22.70;1.00
13744;DHT22;6943;52.368;9.966;2022-09-01T06:08:18;23.40;99.90
13744;DHT22;6943;52.368;9.966;2022-09-01T06:10:44;23.00;99.90
13744;DHT22;6943;52.368;9.966;2022-09-01T06:13:11;24.50;99.90
13744;DHT22;6943;52.368;9.966;2022-09-01T06:15:40;24.80;99.90
13744;DHT22;6943;52.368;9.966;2022-09-01T06:18:08;24.30;99.90
13744;DHT22;6943;52.368;9.966;2022-09-01T06:20:38;24.00;99.90
13744;DHT22;6943;52.368;9.966;2022-09-01T06:23:05;24.00;99.90
13744;DHT22;6943;52.368;9.966;2022-09-01T06:25:30;25.20;99.90
13744;DHT22;6943;52.368;9.966;2022-09-01T06:27:57;26.10;99.90
13744;DHT22;6943;52.368;9.966;2022-09-01T06:30:22;25.90;99.90
13744;DHT22;6943;52.368;9.966;2022-09-01T06:32:51;25.50;99.90
13744;DHT22;6943;52.368;9.966;2022-09-01T06:35:17;25.30;99.90
13744;DHT22;6943;52.368;9.966;2022-09-01T06:37:44;25.70;99.90
13744;DHT22;6943;52.368;9.966;2022-09-01T06:40:12;24.10;99.90
13744;DHT22;6943;52.368;9.966;2022-09-01T06:42:45;25.30;99.90
13744;DHT22;6943;52.368;9.966;2022-09-01T06:45:13;25.60;99.90
13744;DHT22;6943;52.368;9.966;2022-09-01T06:47:40;24.90;99.90
13744;DHT22;6943;52.368;9.966;2022-09-01T06:50:08;25.80;99.90
13744;DHT22;6943;52.368;9.966;2022-09-01T06:52:33;25.90;99.90
13744;DHT22;6943;52.368;9.966;2022-09-01T06:54:59;25.10;99.90
13744;DHT22;6943;52.368;9.966;2022-09-01T06:57:24;24.90;99.90
13744;DHT22;6943;52.368;9.966;2022-09-01T06:59:52;24.50;99.90
13744;DHT22;6943;52.368;9.966;2022-09-01T07:02:18;24.40;99.90
13744;DHT22;6943;52.368;9.966;2022-09-01T07:04:44;24.80;99.90
13744;DHT22;6943;52.368;9.966;2022-09-01T07:07:11;25.60;99.90
13744;DHT22;6943;52.368;9.966;2022-09-01T07:09:38;25.70;99.90
13744;DHT22;6943;52.368;9.966;2022-09-01T07:12:04;24.70;99.90
13744;DHT22;6943;52.368;9.966;2022-09-01T07:14:30;25.50;99.90
13744;DHT22;6943;52.368;9.966;2022-09-01T07:16:55;26.40;99.90
13744;DHT22;6943;52.368;9.966;2022-09-01T07:19:23;25.80;99.90
13744;DHT22;6943;52.368;9.966;2022-09-01T07:21:51;25.10;99.90
13744;DHT22;6943;52.368;9.966;2022-09-01T07:24:18;24.90;99.90
13744;DHT22;6943;52.368;9.966;2022-09-01T07:26:45;24.00;99.90
13744;DHT22;6943;52.368;9.966;2022-09-01T07:29:15;24.20;99.90
13744;DHT22;6943;52.368;9.966;2022-09-01T07:31:42;23.70;99.90
13744;DHT22;6943;52.368;9.966;2022-09-01T07:34:10;24.70;99.90
13744;DHT22;6943;52.368;9.966;2022-09-01T07:36:39;25.60;99.90
13744;DHT22;6943;52.368;9.966;2022-09-01T07:39:06;26.00;99.90
13744;DHT22;6943;52.368;9.966;2022-09-01T07:41:31;25.60;99.90
13744;DHT22;6943;52.368;9.966;2022-09-01T07:43:59;24.30;99.90
13744;DHT22;6943;52.368;9.966;2022-09-01T07:46:27;23.80;99.90
13744;DHT22;6943;52.368;9.966;2022-09-01T07:48:54;25.00;99.90
13744;DHT22;6943;52.368;9.966;2022-09-01T07:51:21;24.80;99.90
13744;DHT22;6943;52.368;9.966;2022-09-01T07:53:47;24.60;99.90
13744;DHT22;6943;52.368;9.966;2022-09-01T07:56:15;24.70;99.90
13744;DHT22;6943;52.368;9.966;2022-09-01T07:58:41;24.70;99.90
13744;DHT22;6943;52.368;9.966;2022-09-01T08:01:09;23.60;99.90
13744;DHT22;6943;52.368;9.966;2022-09-01T08:03:35;23.40;99.90
13744;DHT22;6943;52.368;9.966;2022-09-01T08:06:06;23.40;99.90
13744;DHT22;6943;52.368;9.966;2022-09-01T08:08:33;24.20;99.90
13744;DHT22;6943;52.368;9.966;2022-09-01T08:10:58;23.70;99.90
13744;DHT22;6943;52.368;9.966;2022-09-01T08:13:24;24.20;99.90
13744;DHT22;6943;52.368;9.966;2022-09-01T08:15:49;24.40;99.90
13744;DHT22;6943;52.368;9.966;2022-09-01T08:18:15;24.60;99.90
13744;DHT22;6943;52.368;9.966;2022-09-01T08:20:42;24.00;99.90
13744;DHT22;6943;52.368;9.966;2022-09-01T08:23:17;24.50;99.90
13744;DHT22;6943;52.368;9.966;2022-09-01T08:25:43;24.30;99.90
13744;DHT22;6943;52.368;9.966;2022-09-01T08:28:09;24.30;99.90
13744;DHT22;6943;52.368;9.966;2022-09-01T08:30:39;24.00;99.90
13744;DHT22;6943;52.368;9.966;2022-09-01T08:33:05;24.50;99.90
13744;DHT22;6943;52.368;9.966;2022-09-01T08:35:31;24.50;99.90
13744;DHT22;6943;52.368;9.966;2022-09-01T08:37:57;24.20;99.90
13744;DHT22;6943;52.368;9.966;2022-09-01T08:40:24;23.90;99.90
13744;DHT22;6943;52.368;9.966;2022-09-01T08:45:35;26.10;99.90
13744;DHT22;6943;52.368;9.966;2022-09-01T08:48:17;26.30;99.90
13744;DHT22;6943;52.368;9.966;2022-09-01T08:50:48;25.50;99.90
13744;DHT22;6943;52.368;9.966;2022-09-01T08:53:24;24.40;99.90
13744;DHT22;6943;52.368;9.966;2022-09-01T08:55:55;24.80;99.90
13744;DHT22;6943;52.368;9.966;2022-09-01T08:58:21;25.40;99.90
13744;DHT22;6943;52.368;9.966;2022-09-01T09:00:54;26.20;99.90
13744;DHT22;6943;52.368;9.966;2022-09-01T09:09:00;26.20;99.90
13744;DHT22;6943;52.368;9.966;2022-09-01T09:14:01;25.30;99.90
13744;DHT22;6943;52.368;9.966;2022-09-01T09:16:34;24.80;99.90
13744;DHT22;6943;52.368;9.966;2022-09-01T09:19:36;23.70;99.90
13744;DHT22;6943;52.368;9.966;2022-09-01T09:22:07;22.90;99.90
13744;DHT22;6943;52.368;9.966;2022-09-01T09:25:05;23.10;99.90
13744;DHT22;6943;52.368;9.966;2022-09-01T09:27:36;21.90;99.90
13744;DHT22;6943;52.368;9.966;2022-09-01T09:30:06;21.20;99.90
13744;DHT22;6943;52.368;9.966;2022-09-01T09:33:02;20.80;99.90
13744;DHT22;6943;52.368;9.966;2022-09-01T09:35:38;20.60;99.90
13744;DHT22;6943;52.368;9.966;2022-09-01T09:43:56;20.60;99.90
13744;DHT22;6943;52.368;9.966;2022-09-01T09:46:40;20.40;99.90
13744;DHT22;6943;52.368;9.966;2022-09-01T09:49:22;20.30;99.90
13744;DHT22;6943;52.368;9.966;2022-09-01T09:52:12;20.40;99.90
13744;DHT22;6943;52.368;9.966;2022-09-01T09:55:00;20.50;99.90
13744;DHT22;6943;52.368;9.966;2022-09-01T09:57:29;20.60;99.90
13744;DHT22;6943;52.368;9.966;2022-09-01T10:03:18;21.00;99.90
13744;DHT22;6943;52.368;9.966;2022-09-01T10:05:57;21.00;99.90
13744;DHT22;6943;52.368;9.966;2022-09-01T10:10:51;20.60;99.90
13744;DHT22;6943;52.368;9.966;2022-09-01T10:13:22;20.50;99.90
13744;DHT22;6943;52.368;9.966;2022-09-01T10:15:54;20.70;99.90
13744;DHT22;6943;52.368;9.966;2022-09-01T10:18:23;20.80;99.90
13744;DHT22;6943;52.368;9.966;2022-09-01T10:20:56;21.00;99.90
13744;DHT22;6943;52.368;9.966;2022-09-01T10:23:24;21.00;99.90
13744;DHT22;6943;52.368;9.966;2022-09-01T10:25:55;21.20;99.90
13744;DHT22;6943;52.368;9.966;2022-09-01T10:28:23;20.90;99.90
13744;DHT22;6943;52.368;9.966;2022-09-01T10:30:51;20.80;99.90
13744;DHT22;6943;52.368;9.966;2022-09-01T10:33:19;21.00;99.90
13744;DHT22;6943;52.368;9.966;2022-09-01T10:35:48;21.20;99.90
13744;DHT22;6943;52.368;9.966;2022-09-01T10:38:21;21.20;99.90
13744;DHT22;6943;52.368;9.966;2022-09-01T10:40:48;21.40;99.90
13744;DHT22;6943;52.368;9.966;2022-09-01T10:43:44;21.30;99.90
13744;DHT22;6943;52.368;9.966;2022-09-01T10:48:58;20.90;99.90
13744;DHT22;6943;52.368;9.966;2022-09-01T10:53:53;21.10;99.90
13744;DHT22;6943;52.368;9.966;2022-09-01T10:56:35;21.20;99.90
13744;DHT22;6943;52.368;9.966;2022-09-01T10:59:23;21.20;99.90
13744;DHT22;6943;52.368;9.966;2022-09-01T11:04:17;21.60;99.90
13744;DHT22;6943;52.368;9.966;2022-09-01T11:07:00;21.60;99.90
13744;DHT22;6943;52.368;9.966;2022-09-01T11:09:30;21.60;99.90
13744;DHT22;6943;52.368;9.966;2022-09-01T11:12:28;21.70;99.90
13744;DHT22;6943;52.368;9.966;2022-09-01T11:15:01;21.50;99.90
13744;DHT22;6943;52.368;9.966;2022-09-01T11:17:35;21.80;99.90
13744;DHT22;6943;52.368;9.966;2022-09-01T11:20:06;22.00;99.90
13744;DHT22;6943;52.368;9.966;2022-09-01T11:22:42;22.40;99.90
13744;DHT22;6943;52.368;9.966;2022-09-01T11:30:30;22.70;99.90
13744;DHT22;6943;52.368;9.966;2022-09-01T11:33:39;23.00;99.90
13744;DHT22;6943;52.368;9.966;2022-09-01T11:36:03;23.40;99.90
13744;DHT22;6943;52.368;9.966;2022-09-01T11:38:37;23.90;99.90
13744;DHT22;6943;52.368;9.966;2022-09-01T11:41:07;24.00;99.90
13744;DHT22;6943;52.368;9.966;2022-09-01T11:43:34;24.00;99.90
13744;DHT22;6943;52.368;9.966;2022-09-01T11:46:21;23.80;99.90
13744;DHT22;6943;52.368;9.966;2022-09-01T11:48:49;23.40;99.90
13744;DHT22;6943;52.368;9.966;2022-09-01T11:51:14;23.40;99.90
13744;DHT22;6943;52.368;9.966;2022-09-01T11:53:42;23.80;99.90
13744;DHT22;6943;52.368;9.966;2022-09-01T11:56:17;23.80;99.90
13744;DHT22;6943;52.368;9.966;2022-09-01T11:58:44;23.30;99.90
13744;DHT22;6943;52.368;9.966;2022-09-01T12:01:20;23.30;99.90
13744;DHT22;6943;52.368;9.966;2022-09-01T12:03:48;23.30;99.90
13744;DHT22;6943;52.368;9.966;2022-09-01T12:06:21;23.10;99.90
13744;DHT22;6943;52.368;9.966;2022-09-01T12:08:56;23.00;99.90
13744;DHT22;6943;52.368;9.966;2022-09-01T12:11:30;23.10;99.90
13744;DHT22;6943;52.368;9.966;2022-09-01T12:14:07;23.50;99.90
13744;DHT22;6943;52.368;9.966;2022-09-01T12:16:34;23.80;99.90
13744;DHT22;6943;52.368;9.966;2022-09-01T12:19:02;23.70;99.90
13744;DHT22;6943;52.368;9.966;2022-09-01T12:21:31;23.40;99.90
13744;DHT22;6943;52.368;9.966;2022-09-01T12:24:15;23.30;99.90
13744;DHT22;6943;52.368;9.966;2022-09-01T12:26:41;23.20;99.90
13744;DHT22;6943;52.368;9.966;2022-09-01T12:29:07;23.10;99.90
13744;DHT22;6943;52.368;9.966;2022-09-01T12:31:34;22.90;99.90
13744;DHT22;6943;52.368;9.966;2022-09-01T12:34:26;22.70;99.90
13744;DHT22;6943;52.368;9.966;2022-09-01T12:39:40;22.60;99.90
13744;DHT22;6943;52.368;9.966;2022-09-01T12:42:21;22.40;99.90
13744;DHT22;6943;52.368;9.966;2022-09-01T12:52:45;22.50;99.90
13744;DHT22;6943;52.368;9.966;2022-09-01T12:55:19;22.30;99.90
13744;DHT22;6943;52.368;9.966;2022-09-01T12:57:49;22.40;99.90
13744;DHT22;6943;52.368;9.966;2022-09-01T13:00:27;22.60;99.90
13744;DHT22;6943;52.368;9.966;2022-09-01T13:05:21;22.60;99.90
13744;DHT22;6943;52.368;9.966;2022-09-01T13:07:48;22.50;99.90
13744;DHT22;6943;52.368;9.966;2022-09-01T13:10:14;22.50;99.90
13744;DHT22;6943;52.368;9.966;2022-09-01T13:12:43;22.20;99.90
13744;DHT22;6943;52.368;9.966;2022-09-01T13:15:09;22.20;99.90
13744;DHT22;6943;52.368;9.966;2022-09-01T13:17:35;22.30;99.90
13744;DHT22;6943;52.368;9.966;2022-09-01T13:20:03;22.10;99.90
13744;DHT22;6943;52.368;9.966;2022-09-01T13:22:29;22.10;99.90
13744;DHT22;6943;52.368;9.966;2022-09-01T13:24:54;22.20;99.90
13744;DHT22;6943;52.368;9.966;2022-09-01T13:27:20;22.20;99.90
13744;DHT22;6943;52.368;9.966;2022-09-01T13:29:46;22.30;99.90
13744;DHT22;6943;52.368;9.966;2022-09-01T13:32:13;22.30;99.90
13744;DHT22;6943;52.368;9.966;2022-09-01T13:34:38;22.30;99.90
13744;DHT22;6943;52.368;9.966;2022-09-01T13:37:05;22.30;99.90
13744;DHT22;6943;52.368;9.966;2022-09-01T13:39:31;22.30;99.90
13744;DHT22;6943;52.368;9.966;2022-09-01T13:41:56;22.40;99.90
13744;DHT22;6943;52.368;9.966;2022-09-01T13:44:22;22.60;99.90
13744;DHT22;6943;52.368;9.966;2022-09-01T13:46:47;23.10;99.90
13744;DHT22;6943;52.368;9.966;2022-09-01T13:49:13;23.40;99.90
13744;DHT22;6943;52.368;9.966;2022-09-01T13:51:38;23.40;99.90
13744;DHT22;6943;52.368;9.966;2022-09-01T13:54:04;23.30;99.90
13744;DHT22;6943;52.368;9.966;2022-09-01T13:56:30;23.60;99.90
13744;DHT22;6943;52.368;9.966;2022-09-01T13:58:55;23.70;99.90
13744;DHT22;6943;52.368;9.966;2022-09-01T14:01:21;23.50;99.90
13744;DHT22;6943;52.368;9.966;2022-09-01T14:03:47;23.80;99.90
13744;DHT22;6943;52.368;9.966;2022-09-01T14:06:13;23.90;99.90
13744;DHT22;6943;52.368;9.966;2022-09-01T14:08:39;24.00;99.90
13744;DHT22;6943;52.368;9.966;2022-09-01T14:11:04;24.00;99.90
13744;DHT22;6943;52.368;9.966;2022-09-01T14:13:30;23.50;99.90
13744;DHT22;6943;52.368;9.966;2022-09-01T14:15:57;23.70;99.90
13744;DHT22;6943;52.368;9.966;2022-09-01T14:18:23;23.40;99.90
13744;DHT22;6943;52.368;9.966;2022-09-01T14:21:01;22.80;99.90
13744;DHT22;6943;52.368;9.966;2022-09-01T14:23:27;22.70;99.90
13744;DHT22;6943;52.368;9.966;2022-09-01T14:25:53;22.60;99.90
13744;DHT22;6943;52.368;9.966;2022-09-01T14:28:21;22.80;99.90
13744;DHT22;6943;52.368;9.966;2022-09-01T14:30:47;23.10;99.90
13744;DHT22;6943;52.368;9.966;2022-09-01T14:33:14;23.20;99.90
13744;DHT22;6943;52.368;9.966;2022-09-01T14:35:42;23.10;99.90
13744;DHT22;6943;52.368;9.966;2022-09-01T14:38:08;23.00;99.90
13744;DHT22;6943;52.368;9.966;2022-09-01T14:40:36;23.10;99.90
13744;DHT22;6943;52.368;9.966;2022-09-01T14:43:03;23.30;99.90
13744;DHT22;6943;52.368;9.966;2022-09-01T14:45:29;23.20;99.90
13744;DHT22;6943;52.368;9.966;2022-09-01T14:47:57;23.00;99.90
13744;DHT22;6943;52.368;9.966;2022-09-01T14:50:23;22.80;99.90
13744;DHT22;6943;52.368;9.966;2022-09-01T14:52:56;22.50;99.90
13744;DHT22;6943;52.368;9.966;2022-09-01T14:55:23;22.10;99.90
13744;DHT22;6943;52.368;9.966;2022-09-01T14:57:50;22.00;99.90
13744;DHT22;6943;52.368;9.966;2022-09-01T15:00:16;22.10;99.90
13744;DHT22;6943;52.368;9.966;2022-09-01T15:02:43;22.10;99.90
13744;DHT22;6943;52.368;9.966;2022-09-01T15:05:11;21.90;99.90
13744;DHT22;6943;52.368;9.966;2022-09-01T15:07:37;21.90;99.90
13744;DHT22;6943;52.368;9.966;2022-09-01T15:10:04;22.10;99.90
13744;DHT22;6943;52.368;9.966;2022-09-01T15:12:30;22.40;99.90
13744;DHT22;6943;52.368;9.966;2022-09-01T15:14:57;22.50;99.90
13744;DHT22;6943;52.368;9.966;2022-09-01T15:17:23;22.70;99.90
13744;DHT22;6943;52.368;9.966;2022-09-01T15:19:49;23.00;99.90
13744;DHT22;6943;52.368;9.966;2022-09-01T15:22:14;22.90;99.90
13744;DHT22;6943;52.368;9.966;2022-09-01T15:24:41;23.00;99.90
13744;DHT22;6943;52.368;9.966;2022-09-01T15:27:06;23.00;99.90
13744;DHT22;6943;52.368;9.966;2022-09-01T15:29:32;23.10;99.90
13744;DHT22;6943;52.368;9.966;2022-09-01T15:31:59;23.00;99.90
13744;DHT22;6943;52.368;9.966;2022-09-01T15:34:26;22.90;99.90
13744;DHT22;6943;52.368;9.966;2022-09-01T15:36:51;22.70;99.90
13744;DHT22;6943;52.368;9.966;2022-09-01T15:39:17;22.80;99.90
13744;DHT22;6943;52.368;9.966;2022-09-01T15:41:43;22.80;99.90
13744;DHT22;6943;52.368;9.966;2022-09-01T15:44:09;22.80;99.90
13744;DHT22;6943;52.368;9.966;2022-09-01T15:46:36;22.70;99.90
13744;DHT22;6943;52.368;9.966;2022-09-01T15:49:07;22.60;99.90
13744;DHT22;6943;52.368;9.966;2022-09-01T15:51:38;22.80;99.90
13744;DHT22;6943;52.368;9.966;2022-09-01T15:54:13;23.00;99.90
13744;DHT22;6943;52.368;9.966;2022-09-01T15:56:39;22.90;99.90
13744;DHT22;6943;52.368;9.966;2022-09-01T15:59:08;22.80;99.90
13744;DHT22;6943;52.368;9.966;2022-09-01T16:01:37;22.70;99.90
13744;DHT22;6943;52.368;9.966;2022-09-01T16:04:05;22.70;99.90
13744;DHT22;6943;52.368;9.966;2022-09-01T16:06:31;22.50;99.90
13744;DHT22;6943;52.368;9.966;2022-09-01T16:08:57;22.40;99.90
13744;DHT22;6943;52.368;9.966;2022-09-01T16:11:23;22.20;99.90
13744;DHT22;6943;52.368;9.966;2022-09-01T16:13:51;22.00;99.90
13744;DHT22;6943;52.368;9.966;2022-09-01T16:19:05;21.90;99.90
13744;DHT22;6943;52.368;9.966;2022-09-01T16:22:00;21.80;99.90
13744;DHT22;6943;52.368;9.966;2022-09-01T16:24:27;21.70;99.90
13744;DHT22;6943;52.368;9.966;2022-09-01T16:26:55;21.70;99.90
13744;DHT22;6943;52.368;9.966;2022-09-01T16:29:41;21.60;99.90
13744;DHT22;6943;52.368;9.966;2022-09-01T16:32:08;21.50;99.90
13744;DHT22;6943;52.368;9.966;2022-09-01T16:34:33;21.40;99.90
13744;DHT22;6943;52.368;9.966;2022-09-01T16:37:14;21.50;99.90
13744;DHT22;6943;52.368;9.966;2022-09-01T16:40:03;21.40;99.90
13744;DHT22;6943;52.368;9.966;2022-09-01T16:42:42;21.40;99.90
13744;DHT22;6943;52.368;9.966;2022-09-01T16:45:39;21.50;99.90
13744;DHT22;6943;52.368;9.966;2022-09-01T16:54:09;21.50;99.90
13744;DHT22;6943;52.368;9.966;2022-09-01T16:56:49;21.30;99.90
13744;DHT22;6943;52.368;9.966;2022-09-01T16:59:38;21.20;99.90
13744;DHT22;6943;52.368;9.966;2022-09-01T17:02:19;21.20;99.90